sensor_id;sensor_type;location;lat;lon;timestamp;temperature;humidity
51725;DHT22;37801;53.224;6.552;2022-08-01T00:00:27;18.50;99.90
51725;DHT22;37801;53.224;6.552;2022-08-01T00:02:53;18.70;99.90
51725;DHT22;37801;53.224;6.552;2022-08-01T00:05:19;18.00;99.90
51725;DHT22;37801;53.224;6.552;2022-08-01T00:07:45;17.10;99.90
51725;DHT22;37801;53.224;6.552;2022-08-01T00:10:13;18.10;99.90
51725;DHT22;37801;53.224;6.552;2022-08-01T00:12:40;17.00;99.90
51725;DHT22;37801;53.224;6.552;2022-08-01T00:15:07;17.60;99.90
51725;DHT22;37801;53.224;6.552;2022-08-01T00:17:35;19.00;99.90
51725;DHT22;37801;53.224;6.552;2022-08-01T00:20:01;17.30;99.90
51725;DHT22;37801;53.224;6.552;2022-08-01T00:22:30;18.20;99.90
51725;DHT22;37801;53.224;6.552;2022-08-01T00:24:56;17.10;99.90
51725;DHT22;37801;53.224;6.552;2022-08-01T00:27:21;18.30;99.90
51725;DHT22;37801;53.224;6.552;2022-08-01T00:29:47;16.90;99.90
51725;DHT22;37801;53.224;6.552;2022-08-01T00:32:13;18.70;99.90
51725;DHT22;37801;53.224;6.552;2022-08-01T00:34:38;18.60;99.90
51725;DHT22;37801;53.224;6.552;2022-08-01T00:37:04;16.90;99.90
51725;DHT22;37801;53.224;6.552;2022-08-01T00:39:30;16.80;99.90
51725;DHT22;37801;53.224;6.552;2022-08-01T00:41:58;16.90;99.90
51725;DHT22;37801;53.224;6.552;2022-08-01T00:44:24;18.40;99.90
51725;DHT22;37801;53.224;6.552;2022-08-01T00:46:49;16.90;99.90
51725;DHT22;37801;53.224;6.552;2022-08-01T00:49:15;16.90;99.90
51725;DHT22;37801;53.224;6.552;2022-08-01T00:51:41;17.00;99.90
51725;DHT22;37801;53.224;6.552;2022-08-01T00:54:07;16.80;99.90
51725;DHT22;37801;53.224;6.552;2022-08-01T00:56:32;18.20;99.90
51725;DHT22;37801;53.224;6.552;2022-08-01T00:58:58;16.90;99.90
51725;DHT22;37801;53.224;6.552;2022-08-01T01:01:25;17.70;99.90
51725;DHT22;37801;53.224;6.552;2022-08-01T01:03:52;16.90;99.90
51725;DHT22;37801;53.224;6.552;2022-08-01T01:15:15;17.10;99.90
51725;DHT22;37801;53.224;6.552;2022-08-01T01:20:17;16.80;99.90
51725;DHT22;37801;53.224;6.552;2022-08-01T01:31:42;17.00;99.90
51725;DHT22;37801;53.224;6.552;2022-08-01T01:34:11;16.80;99.90
51725;DHT22;37801;53.224;6.552;2022-08-01T01:36:38;16.80;99.90
51725;DHT22;37801;53.224;6.552;2022-08-01T01:39:05;17.70;99.90
51725;DHT22;37801;53.224;6.552;2022-08-01T01:41:33;17.00;99.90
51725;DHT22;37801;53.224;6.552;2022-08-01T01:44:01;16.80;99.90
51725;DHT22;37801;53.224;6.552;2022-08-01T01:46:28;17.20;99.90
51725;DHT22;37801;53.224;6.552;2022-08-01T01:48:58;17.50;99.90
51725;DHT22;37801;53.224;6.552;2022-08-01T01:51:27;16.90;99.90
51725;DHT22;37801;53.224;6.552;2022-08-01T01:53:54;17.50;99.90
51725;DHT22;37801;53.224;6.552;2022-08-01T01:56:22;17.20;99.90
51725;DHT22;37801;53.224;6.552;2022-08-01T01:59:01;16.90;99.90
51725;DHT22;37801;53.224;6.552;2022-08-01T02:01:30;17.10;99.90
51725;DHT22;37801;53.224;6.552;2022-08-01T02:03:57;17.30;99.90
51725;DHT22;37801;53.224;6.552;2022-08-01T02:06:24;17.30;99.90
51725;DHT22;37801;53.224;6.552;2022-08-01T02:08:53;17.20;99.90
51725;DHT22;37801;53.224;6.552;2022-08-01T02:11:20;17.30;99.90
51725;DHT22;37801;53.224;6.552;2022-08-01T02:13:57;17.30;99.90
51725;DHT22;37801;53.224;6.552;2022-08-01T02:16:26;17.10;99.90
51725;DHT22;37801;53.224;6.552;2022-08-01T02:18:53;17.20;99.90
51725;DHT22;37801;53.224;6.552;2022-08-01T02:21:26;17.00;99.90
51725;DHT22;37801;53.224;6.552;2022-08-01T02:23:56;17.00;99.90
51725;DHT22;37801;53.224;6.552;2022-08-01T02:26:26;17.10;99.90
51725;DHT22;37801;53.224;6.552;2022-08-01T02:29:13;16.90;99.90
51725;DHT22;37801;53.224;6.552;2022-08-01T02:31:41;17.00;99.90
51725;DHT22;37801;53.224;6.552;2022-08-01T02:34:13;17.00;99.90
51725;DHT22;37801;53.224;6.552;2022-08-01T02:36:42;16.90;99.90
51725;DHT22;37801;53.224;6.552;2022-08-01T02:39:13;16.90;99.90
51725;DHT22;37801;53.224;6.552;2022-08-01T02:41:41;17.00;99.90
51725;DHT22;37801;53.224;6.552;2022-08-01T02:44:10;16.90;99.90
51725;DHT22;37801;53.224;6.552;2022-08-01T02:46:48;16.90;99.90
51725;DHT22;37801;53.224;6.552;2022-08-01T02:49:14;16.90;99.90
51725;DHT22;37801;53.224;6.552;2022-08-01T02:51:44;16.90;99.90
51725;DHT22;37801;53.224;6.552;2022-08-01T02:54:12;16.80;99.90
51725;DHT22;37801;53.224;6.552;2022-08-01T02:56:38;16.90;99.90
51725;DHT22;37801;53.224;6.552;2022-08-01T02:59:08;16.80;99.90
51725;DHT22;37801;53.224;6.552;2022-08-01T03:01:38;16.70;99.90
51725;DHT22;37801;53.224;6.552;2022-08-01T03:04:05;16.80;99.90
51725;DHT22;37801;53.224;6.552;2022-08-01T03:06:33;16.70;99.90
51725;DHT22;37801;53.224;6.552;2022-08-01T03:09:01;16.70;99.90
51725;DHT22;37801;53.224;6.552;2022-08-01T03:11:28;16.60;99.90
51725;DHT22;37801;53.224;6.552;2022-08-01T03:13:55;16.70;99.90
51725;DHT22;37801;53.224;6.552;2022-08-01T03:16:23;16.60;99.90
51725;DHT22;37801;53.224;6.552;2022-08-01T03:18:53;16.60;99.90
51725;DHT22;37801;53.224;6.552;2022-08-01T03:21:21;16.60;99.90
51725;DHT22;37801;53.224;6.552;2022-08-01T03:23:48;16.60;99.90
51725;DHT22;37801;53.224;6.552;2022-08-01T03:26:16;16.60;99.90
51725;DHT22;37801;53.224;6.552;2022-08-01T03:28:44;16.60;99.90
51725;DHT22;37801;53.224;6.552;2022-08-01T03:31:13;16.50;99.90
51725;DHT22;37801;53.224;6.552;2022-08-01T03:33:39;16.50;99.90
51725;DHT22;37801;53.224;6.552;2022-08-01T03:36:09;16.50;99.90
51725;DHT22;37801;53.224;6.552;2022-08-01T03:38:37;16.60;99.90
51725;DHT22;37801;53.224;6.552;2022-08-01T03:41:18;16.60;99.90
51725;DHT22;37801;53.224;6.552;2022-08-01T03:43:57;16.60;99.90
51725;DHT22;37801;53.224;6.552;2022-08-01T03:46:30;16.60;99.90
51725;DHT22;37801;53.224;6.552;2022-08-01T03:49:00;16.60;99.90
51725;DHT22;37801;53.224;6.552;2022-08-01T03:51:29;16.60;99.90
51725;DHT22;37801;53.224;6.552;2022-08-01T03:53:57;16.60;99.90
51725;DHT22;37801;53.224;6.552;2022-08-01T03:56:25;16.50;99.90
51725;DHT22;37801;53.224;6.552;2022-08-01T03:58:52;16.50;99.90
51725;DHT22;37801;53.224;6.552;2022-08-01T04:01:19;16.50;99.90
51725;DHT22;37801;53.224;6.552;2022-08-01T04:03:45;16.50;99.90
51725;DHT22;37801;53.224;6.552;2022-08-01T04:06:11;16.40;99.90
51725;DHT22;37801;53.224;6.552;2022-08-01T04:08:40;16.40;99.90
51725;DHT22;37801;53.224;6.552;2022-08-01T04:11:08;16.40;99.90
51725;DHT22;37801;53.224;6.552;2022-08-01T04:13:34;16.40;99.90
51725;DHT22;37801;53.224;6.552;2022-08-01T04:16:00;16.50;99.90
51725;DHT22;37801;53.224;6.552;2022-08-01T04:18:26;16.50;99.90
51725;DHT22;37801;53.224;6.552;2022-08-01T04:20:52;16.50;99.90
51725;DHT22;37801;53.224;6.552;2022-08-01T04:23:21;16.50;99.90
51725;DHT22;37801;53.224;6.552;2022-08-01T04:25:49;16.40;99.90
51725;DHT22;37801;53.224;6.552;2022-08-01T04:28:16;16.40;99.90
51725;DHT22;37801;53.224;6.552;2022-08-01T04:30:44;16.40;99.90
51725;DHT22;37801;53.224;6.552;2022-08-01T04:33:14;16.40;99.90
51725;DHT22;37801;53.224;6.552;2022-08-01T04:35:44;16.40;99.90
51725;DHT22;37801;53.224;6.552;2022-08-01T04:38:17;16.40;99.90
51725;DHT22;37801;53.224;6.552;2022-08-01T04:40:44;16.30;99.90
51725;DHT22;37801;53.224;6.552;2022-08-01T04:43:13;16.40;99.90
51725;DHT22;37801;53.224;6.552;2022-08-01T04:45:40;16.50;99.90
51725;DHT22;37801;53.224;6.552;2022-08-01T04:48:09;16.50;99.90
51725;DHT22;37801;53.224;6.552;2022-08-01T04:50:36;16.50;99.90
51725;DHT22;37801;53.224;6.552;2022-08-01T04:53:03;16.40;99.90
51725;DHT22;37801;53.224;6.552;2022-08-01T04:55:29;16.40;99.90
51725;DHT22;37801;53.224;6.552;2022-08-01T04:57:56;16.30;99.90
51725;DHT22;37801;53.224;6.552;2022-08-01T05:00:22;16.30;99.90
51725;DHT22;37801;53.224;6.552;2022-08-01T05:02:48;16.40;99.90
51725;DHT22;37801;53.224;6.552;2022-08-01T05:05:13;16.30;99.90
51725;DHT22;37801;53.224;6.552;2022-08-01T05:07:40;16.40;99.90
51725;DHT22;37801;53.224;6.552;2022-08-01T05:10:06;16.40;99.90
51725;DHT22;37801;53.224;6.552;2022-08-01T05:12:32;16.40;99.90
51725;DHT22;37801;53.224;6.552;2022-08-01T05:15:00;16.40;99.90
51725;DHT22;37801;53.224;6.552;2022-08-01T05:17:27;16.40;99.90
51725;DHT22;37801;53.224;6.552;2022-08-01T05:19:52;16.40;99.90
51725;DHT22;37801;53.224;6.552;2022-08-01T05:22:18;16.40;99.90
51725;DHT22;37801;53.224;6.552;2022-08-01T05:24:44;16.50;99.90
51725;DHT22;37801;53.224;6.552;2022-08-01T05:27:11;16.50;99.90
51725;DHT22;37801;53.224;6.552;2022-08-01T05:29:38;16.50;99.90
51725;DHT22;37801;53.224;6.552;2022-08-01T05:32:04;16.50;99.90
51725;DHT22;37801;53.224;6.552;2022-08-01T05:34:29;16.50;99.90
51725;DHT22;37801;53.224;6.552;2022-08-01T05:36:55;16.40;99.90
51725;DHT22;37801;53.224;6.552;2022-08-01T05:39:21;16.40;99.90
51725;DHT22;37801;53.224;6.552;2022-08-01T05:41:46;16.40;99.90
51725;DHT22;37801;53.224;6.552;2022-08-01T05:44:12;16.60;99.90
51725;DHT22;37801;53.224;6.552;2022-08-01T05:46:38;16.50;99.90
51725;DHT22;37801;53.224;6.552;2022-08-01T05:49:04;16.40;99.90
51725;DHT22;37801;53.224;6.552;2022-08-01T05:51:30;16.40;99.90
51725;DHT22;37801;53.224;6.552;2022-08-01T05:53:57;16.20;99.90
51725;DHT22;37801;53.224;6.552;2022-08-01T05:56:23;16.20;99.90
51725;DHT22;37801;53.224;6.552;2022-08-01T05:58:49;16.20;99.90
51725;DHT22;37801;53.224;6.552;2022-08-01T06:01:16;16.10;99.90
51725;DHT22;37801;53.224;6.552;2022-08-01T06:03:42;16.10;99.90
51725;DHT22;37801;53.224;6.552;2022-08-01T06:06:09;16.20;99.90
51725;DHT22;37801;53.224;6.552;2022-08-01T06:08:34;16.20;99.90
51725;DHT22;37801;53.224;6.552;2022-08-01T06:11:00;16.20;99.90
51725;DHT22;37801;53.224;6.552;2022-08-01T06:13:26;16.20;99.90
51725;DHT22;37801;53.224;6.552;2022-08-01T06:15:52;16.10;99.90
51725;DHT22;37801;53.224;6.552;2022-08-01T06:18:19;16.10;99.90
51725;DHT22;37801;53.224;6.552;2022-08-01T06:20:44;16.10;99.90
51725;DHT22;37801;53.224;6.552;2022-08-01T06:23:10;16.00;99.90
51725;DHT22;37801;53.224;6.552;2022-08-01T06:25:36;16.00;99.90
51725;DHT22;37801;53.224;6.552;2022-08-01T06:28:02;16.10;99.90
51725;DHT22;37801;53.224;6.552;2022-08-01T06:30:28;16.00;99.90
51725;DHT22;37801;53.224;6.552;2022-08-01T06:32:54;16.10;99.90
51725;DHT22;37801;53.224;6.552;2022-08-01T06:35:21;16.20;99.90
51725;DHT22;37801;53.224;6.552;2022-08-01T06:37:47;16.10;99.90
51725;DHT22;37801;53.224;6.552;2022-08-01T06:40:15;16.20;99.90
51725;DHT22;37801;53.224;6.552;2022-08-01T06:42:40;16.10;99.90
51725;DHT22;37801;53.224;6.552;2022-08-01T06:45:08;16.20;99.90
51725;DHT22;37801;53.224;6.552;2022-08-01T06:47:35;16.30;99.90
51725;DHT22;37801;53.224;6.552;2022-08-01T06:50:01;16.30;99.90
51725;DHT22;37801;53.224;6.552;2022-08-01T06:52:27;16.30;99.90
51725;DHT22;37801;53.224;6.552;2022-08-01T06:54:52;16.40;99.90
51725;DHT22;37801;53.224;6.552;2022-08-01T06:57:18;16.40;99.90
51725;DHT22;37801;53.224;6.552;2022-08-01T06:59:44;16.40;99.90
51725;DHT22;37801;53.224;6.552;2022-08-01T07:02:10;16.40;99.90
51725;DHT22;37801;53.224;6.552;2022-08-01T07:04:36;16.40;99.90
51725;DHT22;37801;53.224;6.552;2022-08-01T07:07:02;16.50;99.90
51725;DHT22;37801;53.224;6.552;2022-08-01T07:09:28;16.50;99.90
51725;DHT22;37801;53.224;6.552;2022-08-01T07:11:54;16.50;99.90
51725;DHT22;37801;53.224;6.552;2022-08-01T07:14:23;16.60;99.90
51725;DHT22;37801;53.224;6.552;2022-08-01T07:16:49;16.70;99.90
51725;DHT22;37801;53.224;6.552;2022-08-01T07:19:16;16.70;99.90
51725;DHT22;37801;53.224;6.552;2022-08-01T07:21:42;16.80;99.90
51725;DHT22;37801;53.224;6.552;2022-08-01T07:24:09;16.80;99.90
51725;DHT22;37801;53.224;6.552;2022-08-01T07:26:35;16.80;99.90
51725;DHT22;37801;53.224;6.552;2022-08-01T07:29:01;16.90;99.90
51725;DHT22;37801;53.224;6.552;2022-08-01T07:31:28;16.80;99.90
51725;DHT22;37801;53.224;6.552;2022-08-01T07:33:54;16.90;99.90
51725;DHT22;37801;53.224;6.552;2022-08-01T07:36:19;16.90;99.90
51725;DHT22;37801;53.224;6.552;2022-08-01T07:38:46;16.90;99.90
51725;DHT22;37801;53.224;6.552;2022-08-01T07:41:12;16.90;99.90
51725;DHT22;37801;53.224;6.552;2022-08-01T07:43:37;17.00;99.90
51725;DHT22;37801;53.224;6.552;2022-08-01T07:46:04;16.90;99.90
51725;DHT22;37801;53.224;6.552;2022-08-01T07:48:30;17.00;99.90
51725;DHT22;37801;53.224;6.552;2022-08-01T07:50:56;17.00;99.90
51725;DHT22;37801;53.224;6.552;2022-08-01T07:53:22;17.10;99.90
51725;DHT22;37801;53.224;6.552;2022-08-01T07:55:47;17.20;99.90
51725;DHT22;37801;53.224;6.552;2022-08-01T07:58:14;17.10;99.90
51725;DHT22;37801;53.224;6.552;2022-08-01T08:00:39;17.10;99.90
51725;DHT22;37801;53.224;6.552;2022-08-01T08:03:05;17.10;99.90
51725;DHT22;37801;53.224;6.552;2022-08-01T08:05:31;17.20;99.90
51725;DHT22;37801;53.224;6.552;2022-08-01T08:08:01;17.20;99.90
51725;DHT22;37801;53.224;6.552;2022-08-01T08:10:27;17.20;99.90
51725;DHT22;37801;53.224;6.552;2022-08-01T08:12:52;17.20;99.90
51725;DHT22;37801;53.224;6.552;2022-08-01T08:15:18;17.30;99.90
51725;DHT22;37801;53.224;6.552;2022-08-01T08:17:44;17.30;99.90
51725;DHT22;37801;53.224;6.552;2022-08-01T08:20:10;17.40;99.90
51725;DHT22;37801;53.224;6.552;2022-08-01T08:22:36;17.40;99.90
51725;DHT22;37801;53.224;6.552;2022-08-01T08:25:02;17.50;99.90
51725;DHT22;37801;53.224;6.552;2022-08-01T08:27:28;17.60;99.90
51725;DHT22;37801;53.224;6.552;2022-08-01T08:29:54;17.60;99.90
51725;DHT22;37801;53.224;6.552;2022-08-01T08:32:19;17.60;99.90
51725;DHT22;37801;53.224;6.552;2022-08-01T08:34:46;17.60;99.90
51725;DHT22;37801;53.224;6.552;2022-08-01T08:37:11;17.60;99.90
51725;DHT22;37801;53.224;6.552;2022-08-01T08:39:38;17.60;99.90
51725;DHT22;37801;53.224;6.552;2022-08-01T08:42:07;17.70;99.90
51725;DHT22;37801;53.224;6.552;2022-08-01T08:44:34;17.70;99.90
51725;DHT22;37801;53.224;6.552;2022-08-01T08:47:02;17.70;99.90
51725;DHT22;37801;53.224;6.552;2022-08-01T08:49:31;17.80;99.90
51725;DHT22;37801;53.224;6.552;2022-08-01T08:52:00;17.90;99.90
51725;DHT22;37801;53.224;6.552;2022-08-01T08:54:27;18.00;99.90
51725;DHT22;37801;53.224;6.552;2022-08-01T08:56:54;18.00;99.90
51725;DHT22;37801;53.224;6.552;2022-08-01T08:59:21;18.00;99.90
51725;DHT22;37801;53.224;6.552;2022-08-01T09:01:47;18.00;99.90
51725;DHT22;37801;53.224;6.552;2022-08-01T09:04:13;18.10;99.90
51725;DHT22;37801;53.224;6.552;2022-08-01T09:06:39;18.10;99.90
51725;DHT22;37801;53.224;6.552;2022-08-01T09:09:06;18.20;99.90
51725;DHT22;37801;53.224;6.552;2022-08-01T09:11:33;18.30;99.90
51725;DHT22;37801;53.224;6.552;2022-08-01T09:14:09;18.30;99.90
51725;DHT22;37801;53.224;6.552;2022-08-01T09:16:39;18.20;99.90
51725;DHT22;37801;53.224;6.552;2022-08-01T09:19:15;18.20;99.90
51725;DHT22;37801;53.224;6.552;2022-08-01T09:22:01;18.20;99.90
51725;DHT22;37801;53.224;6.552;2022-08-01T09:24:29;18.30;99.90
51725;DHT22;37801;53.224;6.552;2022-08-01T09:26:56;18.30;99.90
51725;DHT22;37801;53.224;6.552;2022-08-01T09:29:27;18.30;99.90
51725;DHT22;37801;53.224;6.552;2022-08-01T09:31:53;18.30;99.90
51725;DHT22;37801;53.224;6.552;2022-08-01T09:34:33;18.30;99.90
51725;DHT22;37801;53.224;6.552;2022-08-01T09:37:01;18.30;99.90
51725;DHT22;37801;53.224;6.552;2022-08-01T09:39:32;18.40;99.90
51725;DHT22;37801;53.224;6.552;2022-08-01T09:42:01;18.40;99.90
51725;DHT22;37801;53.224;6.552;2022-08-01T09:44:42;18.40;99.90
51725;DHT22;37801;53.224;6.552;2022-08-01T09:47:08;18.40;99.90
51725;DHT22;37801;53.224;6.552;2022-08-01T09:49:35;18.50;99.90
51725;DHT22;37801;53.224;6.552;2022-08-01T09:52:19;18.50;99.90
51725;DHT22;37801;53.224;6.552;2022-08-01T09:54:53;18.50;99.90
51725;DHT22;37801;53.224;6.552;2022-08-01T09:57:19;18.50;99.90
51725;DHT22;37801;53.224;6.552;2022-08-01T09:59:48;18.50;99.90
51725;DHT22;37801;53.224;6.552;2022-08-01T10:02:38;18.50;99.90
51725;DHT22;37801;53.224;6.552;2022-08-01T10:05:07;18.50;99.90
51725;DHT22;37801;53.224;6.552;2022-08-01T10:07:34;18.60;99.90
51725;DHT22;37801;53.224;6.552;2022-08-01T10:10:11;18.60;99.90
51725;DHT22;37801;53.224;6.552;2022-08-01T10:12:37;18.60;99.90
51725;DHT22;37801;53.224;6.552;2022-08-01T10:15:05;18.60;99.90
51725;DHT22;37801;53.224;6.552;2022-08-01T10:17:33;18.60;99.90
51725;DHT22;37801;53.224;6.552;2022-08-01T10:20:01;18.70;99.90
51725;DHT22;37801;53.224;6.552;2022-08-01T10:22:30;18.70;99.90
51725;DHT22;37801;53.224;6.552;2022-08-01T10:24:57;18.70;99.90
51725;DHT22;37801;53.224;6.552;2022-08-01T10:27:28;18.80;99.90
51725;DHT22;37801;53.224;6.552;2022-08-01T10:29:57;18.80;99.90
51725;DHT22;37801;53.224;6.552;2022-08-01T10:32:26;18.90;99.90
51725;DHT22;37801;53.224;6.552;2022-08-01T10:34:52;18.90;99.90
51725;DHT22;37801;53.224;6.552;2022-08-01T10:37:18;18.90;99.90
51725;DHT22;37801;53.224;6.552;2022-08-01T10:39:45;18.90;99.90
51725;DHT22;37801;53.224;6.552;2022-08-01T10:42:11;18.90;99.90
51725;DHT22;37801;53.224;6.552;2022-08-01T10:44:38;18.90;99.90
51725;DHT22;37801;53.224;6.552;2022-08-01T10:47:09;18.90;99.90
51725;DHT22;37801;53.224;6.552;2022-08-01T10:49:53;18.90;99.90
51725;DHT22;37801;53.224;6.552;2022-08-01T10:52:21;18.90;99.90
51725;DHT22;37801;53.224;6.552;2022-08-01T10:54:47;18.80;99.90
51725;DHT22;37801;53.224;6.552;2022-08-01T10:57:13;18.90;99.90
51725;DHT22;37801;53.224;6.552;2022-08-01T10:59:51;18.90;99.90
51725;DHT22;37801;53.224;6.552;2022-08-01T11:02:31;19.00;99.90
51725;DHT22;37801;53.224;6.552;2022-08-01T11:05:07;19.10;99.90
51725;DHT22;37801;53.224;6.552;2022-08-01T11:07:48;19.20;99.90
51725;DHT22;37801;53.224;6.552;2022-08-01T11:10:39;19.20;99.90
51725;DHT22;37801;53.224;6.552;2022-08-01T11:13:06;19.20;99.90
51725;DHT22;37801;53.224;6.552;2022-08-01T11:15:37;19.20;99.90
51725;DHT22;37801;53.224;6.552;2022-08-01T11:21:00;19.10;99.90
51725;DHT22;37801;53.224;6.552;2022-08-01T11:23:30;19.10;99.90
51725;DHT22;37801;53.224;6.552;2022-08-01T11:28:27;19.00;99.90
51725;DHT22;37801;53.224;6.552;2022-08-01T11:41:28;19.00;99.90
51725;DHT22;37801;53.224;6.552;2022-08-01T11:44:08;19.00;99.90
51725;DHT22;37801;53.224;6.552;2022-08-01T11:46:54;19.10;99.90
51725;DHT22;37801;53.224;6.552;2022-08-01T11:52:30;19.20;99.90
51725;DHT22;37801;53.224;6.552;2022-08-01T11:55:05;19.20;99.90
51725;DHT22;37801;53.224;6.552;2022-08-01T11:57:33;19.30;99.90
51725;DHT22;37801;53.224;6.552;2022-08-01T12:00:13;19.30;99.90
51725;DHT22;37801;53.224;6.552;2022-08-01T12:02:39;19.30;99.90
51725;DHT22;37801;53.224;6.552;2022-08-01T12:05:16;19.20;99.90
51725;DHT22;37801;53.224;6.552;2022-08-01T12:07:44;19.20;99.90
51725;DHT22;37801;53.224;6.552;2022-08-01T12:10:13;19.20;99.90
51725;DHT22;37801;53.224;6.552;2022-08-01T12:12:52;19.20;99.90
51725;DHT22;37801;53.224;6.552;2022-08-01T12:15:19;19.30;99.90
51725;DHT22;37801;53.224;6.552;2022-08-01T12:17:55;19.20;99.90
51725;DHT22;37801;53.224;6.552;2022-08-01T12:20:22;19.20;99.90
51725;DHT22;37801;53.224;6.552;2022-08-01T12:22:53;19.30;99.90
51725;DHT22;37801;53.224;6.552;2022-08-01T12:25:19;19.20;99.90
51725;DHT22;37801;53.224;6.552;2022-08-01T12:27:46;19.20;99.90
51725;DHT22;37801;53.224;6.552;2022-08-01T12:30:17;19.10;99.90
51725;DHT22;37801;53.224;6.552;2022-08-01T12:32:45;19.20;99.90
51725;DHT22;37801;53.224;6.552;2022-08-01T12:35:17;19.20;99.90
51725;DHT22;37801;53.224;6.552;2022-08-01T12:37:45;19.20;99.90
51725;DHT22;37801;53.224;6.552;2022-08-01T12:40:22;19.20;99.90
51725;DHT22;37801;53.224;6.552;2022-08-01T12:42:52;19.30;99.90
51725;DHT22;37801;53.224;6.552;2022-08-01T12:45:24;19.30;99.90
51725;DHT22;37801;53.224;6.552;2022-08-01T12:47:51;19.40;99.90
51725;DHT22;37801;53.224;6.552;2022-08-01T12:50:20;19.30;99.90
51725;DHT22;37801;53.224;6.552;2022-08-01T12:52:47;19.40;99.90
51725;DHT22;37801;53.224;6.552;2022-08-01T12:55:18;19.50;99.90
51725;DHT22;37801;53.224;6.552;2022-08-01T12:57:46;19.50;99.90
51725;DHT22;37801;53.224;6.552;2022-08-01T13:00:25;19.50;99.90
51725;DHT22;37801;53.224;6.552;2022-08-01T13:03:09;19.60;99.90
51725;DHT22;37801;53.224;6.552;2022-08-01T13:08:31;19.60;99.90
51725;DHT22;37801;53.224;6.552;2022-08-01T13:11:06;19.50;99.90
51725;DHT22;37801;53.224;6.552;2022-08-01T13:13:39;19.50;99.90
51725;DHT22;37801;53.224;6.552;2022-08-01T13:16:07;19.60;99.90
51725;DHT22;37801;53.224;6.552;2022-08-01T13:18:35;19.60;99.90
51725;DHT22;37801;53.224;6.552;2022-08-01T13:21:11;19.60;99.90
51725;DHT22;37801;53.224;6.552;2022-08-01T13:23:38;19.60;99.90
51725;DHT22;37801;53.224;6.552;2022-08-01T13:26:04;19.50;99.90
51725;DHT22;37801;53.224;6.552;2022-08-01T13:28:30;19.50;99.90
51725;DHT22;37801;53.224;6.552;2022-08-01T13:31:07;19.50;99.90
51725;DHT22;37801;53.224;6.552;2022-08-01T13:33:47;19.50;99.90
51725;DHT22;37801;53.224;6.552;2022-08-01T13:36:13;19.60;99.90
51725;DHT22;37801;53.224;6.552;2022-08-01T13:38:41;19.60;99.90
51725;DHT22;37801;53.224;6.552;2022-08-01T13:41:25;19.70;99.90
51725;DHT22;37801;53.224;6.552;2022-08-01T13:43:51;19.70;99.90
51725;DHT22;37801;53.224;6.552;2022-08-01T13:46:18;19.80;99.90
51725;DHT22;37801;53.224;6.552;2022-08-01T13:48:44;19.80;99.90
51725;DHT22;37801;53.224;6.552;2022-08-01T13:51:10;19.80;99.90
51725;DHT22;37801;53.224;6.552;2022-08-01T13:53:36;19.80;99.90
51725;DHT22;37801;53.224;6.552;2022-08-01T13:56:01;19.80;99.90
51725;DHT22;37801;53.224;6.552;2022-08-01T13:58:27;19.80;99.90
51725;DHT22;37801;53.224;6.552;2022-08-01T14:00:54;19.80;99.90
51725;DHT22;37801;53.224;6.552;2022-08-01T14:03:21;19.80;99.90
51725;DHT22;37801;53.224;6.552;2022-08-01T14:05:47;19.70;99.90
51725;DHT22;37801;53.224;6.552;2022-08-01T14:08:14;19.70;99.90
51725;DHT22;37801;53.224;6.552;2022-08-01T14:10:40;19.70;99.90
51725;DHT22;37801;53.224;6.552;2022-08-01T14:13:06;19.70;99.90
51725;DHT22;37801;53.224;6.552;2022-08-01T14:15:32;19.70;99.90
51725;DHT22;37801;53.224;6.552;2022-08-01T14:17:58;19.70;99.90
51725;DHT22;37801;53.224;6.552;2022-08-01T14:20:24;19.60;99.90
51725;DHT22;37801;53.224;6.552;2022-08-01T14:22:50;19.40;99.90
51725;DHT22;37801;53.224;6.552;2022-08-01T14:25:15;19.40;99.90
51725;DHT22;37801;53.224;6.552;2022-08-01T14:27:44;19.40;99.90
51725;DHT22;37801;53.224;6.552;2022-08-01T14:30:10;19.40;99.90
51725;DHT22;37801;53.224;6.552;2022-08-01T14:32:36;19.40;99.90
51725;DHT22;37801;53.224;6.552;2022-08-01T14:35:04;19.40;99.90
51725;DHT22;37801;53.224;6.552;2022-08-01T14:37:32;19.50;99.90
51725;DHT22;37801;53.224;6.552;2022-08-01T14:39:58;19.50;99.90
51725;DHT22;37801;53.224;6.552;2022-08-01T14:42:25;19.60;99.90
51725;DHT22;37801;53.224;6.552;2022-08-01T14:44:51;19.60;99.90
51725;DHT22;37801;53.224;6.552;2022-08-01T14:47:17;19.70;99.90
51725;DHT22;37801;53.224;6.552;2022-08-01T14:49:42;19.80;99.90
51725;DHT22;37801;53.224;6.552;2022-08-01T14:52:08;19.80;99.90
51725;DHT22;37801;53.224;6.552;2022-08-01T14:54:34;19.90;99.90
51725;DHT22;37801;53.224;6.552;2022-08-01T14:56:59;19.90;99.90
51725;DHT22;37801;53.224;6.552;2022-08-01T14:59:25;19.90;99.90
51725;DHT22;37801;53.224;6.552;2022-08-01T15:01:51;19.80;99.90
51725;DHT22;37801;53.224;6.552;2022-08-01T15:04:17;19.90;99.90
51725;DHT22;37801;53.224;6.552;2022-08-01T15:06:43;19.90;99.90
51725;DHT22;37801;53.224;6.552;2022-08-01T15:09:09;19.90;99.90
51725;DHT22;37801;53.224;6.552;2022-08-01T15:11:36;19.80;99.90
51725;DHT22;37801;53.224;6.552;2022-08-01T15:14:02;19.80;99.90
51725;DHT22;37801;53.224;6.552;2022-08-01T15:16:46;19.80;99.90
51725;DHT22;37801;53.224;6.552;2022-08-01T15:19:13;19.80;99.90
51725;DHT22;37801;53.224;6.552;2022-08-01T15:21:38;19.90;99.90
51725;DHT22;37801;53.224;6.552;2022-08-01T15:24:04;19.90;99.90
51725;DHT22;37801;53.224;6.552;2022-08-01T15:26:30;20.00;99.90
51725;DHT22;37801;53.224;6.552;2022-08-01T15:28:56;20.00;99.90
51725;DHT22;37801;53.224;6.552;2022-08-01T15:31:22;20.00;99.90
51725;DHT22;37801;53.224;6.552;2022-08-01T15:33:48;20.00;99.70
51725;DHT22;37801;53.224;6.552;2022-08-01T15:36:14;20.00;99.90
51725;DHT22;37801;53.224;6.552;2022-08-01T15:38:39;20.00;99.90
51725;DHT22;37801;53.224;6.552;2022-08-01T15:41:05;20.00;99.90
51725;DHT22;37801;53.224;6.552;2022-08-01T15:43:31;20.00;99.90
51725;DHT22;37801;53.224;6.552;2022-08-01T15:45:57;19.90;99.90
51725;DHT22;37801;53.224;6.552;2022-08-01T15:48:23;20.00;99.90
51725;DHT22;37801;53.224;6.552;2022-08-01T15:50:49;19.90;99.90
51725;DHT22;37801;53.224;6.552;2022-08-01T15:53:15;19.90;99.90
51725;DHT22;37801;53.224;6.552;2022-08-01T15:55:41;19.90;99.90
51725;DHT22;37801;53.224;6.552;2022-08-01T15:58:08;19.90;99.90
51725;DHT22;37801;53.224;6.552;2022-08-01T16:00:34;19.90;99.90
51725;DHT22;37801;53.224;6.552;2022-08-01T16:03:00;19.90;99.90
51725;DHT22;37801;53.224;6.552;2022-08-01T16:05:26;19.90;99.90
51725;DHT22;37801;53.224;6.552;2022-08-01T16:07:51;19.80;99.90
51725;DHT22;37801;53.224;6.552;2022-08-01T16:10:17;19.80;99.90
51725;DHT22;37801;53.224;6.552;2022-08-01T16:12:43;19.80;99.90
51725;DHT22;37801;53.224;6.552;2022-08-01T16:15:09;19.80;99.90
51725;DHT22;37801;53.224;6.552;2022-08-01T16:17:35;19.70;99.90